Pays
Station

 

Conditions  météo  pour  Agra  -  Inde    Inde

  
19 °C
    
 
 

METAR pour Agra :

VIAG 142130Z 01003KT 4500 BR FEW100 19/16 Q1013 BECMG 4000

 

Voici le bulletin pour Agra - Inde.
 
Le bulletin a été fait il y a 2 heures et 17 minutes, à 21:30 UTC .
Le vent soufflait à la vitesse de 1.5 mètres par seconde de Nord (010°).
 
La température était de 19 °C, avec un point de rosée à 16 °C.
La pression atmosphérique était de 1013 hPa.
L'humidité relative était de 82.7%.
 
Il y avait 1 à 2/8ème de nébulosité à une hauteur de 3048 mètres.
 
La visibilité globale était de 4500 mètres.
 
Actuellement brume.

 
 
 

Pays :   A   B   C   D   E   F   G   H   I   J   K   L   M   N   O   P   Q   R   S   T   U   V   W   Y   Z

 

Partenaires :  Info Météo avec Met'info
Météo Marine avec MeteoMarine.net
Infos Site  |  Infos Légales  |  Crédits  |  Confidentialité
Contactez-nous  |  Ajouter aux favoris
© 2013-2018 METAR - Tous droits réservés